Time;durP1;ratioP1;P1;durP2;ratioP2;P2;SDS_P1;SDS_P2;PMS_P1;PMS_P2;Temp;Humidity;BMP_temperature;BMP_pressure;BME280_temperature;BME280_humidity;BME280_pressure;Samples;Min_cycle;Max_cycle;Signal;HPM_P1;HPM_P2
2021/03/14 00:00:45;;;;;;;3.50;2.00;;;;;;;7.10;66.76;98717.89;99560;1172;66938;-66
2021/03/14 00:02:54;;;;;;;3.35;2.15;;;;;;;6.98;66.68;98714.17;99531;1167;86830;-65
2021/03/14 00:04:59;;;;;;;4.60;2.20;;;;;;;6.84;66.72;98720.59;99592;1171;75164;-67
2021/03/14 00:07:06;;;;;;;3.30;1.73;;;;;;;6.74;66.86;98728.21;99570;1172;89257;-65
2021/03/14 00:09:11;;;;;;;4.20;1.90;;;;;;;6.67;66.79;98730.91;99538;1172;82434;-66
2021/03/14 00:11:16;;;;;;;3.15;1.60;;;;;;;6.63;66.95;98732.34;99573;1171;67471;-66
2021/03/14 00:13:25;;;;;;;3.00;1.60;;;;;;;6.57;67.34;98726.95;99534;1171;86340;-65
2021/03/14 00:15:34;;;;;;;4.20;1.90;;;;;;;6.50;67.27;98726.96;99576;1171;74713;-65
2021/03/14 00:17:42;;;;;;;3.75;2.05;;;;;;;6.46;67.22;98714.97;99559;1167;89882;-65
2021/03/14 00:19:48;;;;;;;3.50;1.60;;;;;;;6.38;67.42;98716.00;99540;1171;82346;-66
2021/03/14 00:21:53;;;;;;;3.40;1.70;;;;;;;6.30;67.11;98718.88;99566;1172;66836;-65
2021/03/14 00:24:01;;;;;;;3.30;1.70;;;;;;;6.21;67.53;98717.40;99557;1166;87921;-66
2021/03/14 00:26:07;;;;;;;2.95;1.60;;;;;;;6.15;67.39;98720.91;99571;1172;75568;-65
2021/03/14 00:28:17;;;;;;;3.73;1.60;;;;;;;6.10;67.59;98727.91;99435;1171;88309;-66
2021/03/14 00:30:25;;;;;;;3.70;2.20;;;;;;;6.02;67.66;98723.53;99551;1171;82882;-65
2021/03/14 00:32:32;;;;;;;3.40;1.70;;;;;;;5.96;67.81;98718.97;99554;1172;66905;-66
2021/03/14 00:34:38;;;;;;;3.60;1.70;;;;;;;5.94;68.14;98726.39;99548;1168;86925;-66
2021/03/14 00:36:43;;;;;;;2.83;1.40;;;;;;;5.95;68.23;98722.69;99543;1167;74318;-65
2021/03/14 00:38:48;;;;;;;3.10;1.60;;;;;;;5.94;68.13;98735.26;99548;1172;89549;-65
2021/03/14 00:40:57;;;;;;;3.60;1.50;;;;;;;5.91;68.02;98726.78;99507;1172;82621;-66
2021/03/14 00:43:08;;;;;;;3.60;1.50;;;;;;;5.85;68.22;98735.65;99567;1172;66889;-66
2021/03/14 00:45:16;;;;;;;4.90;1.60;;;;;;;5.84;68.58;98733.95;99534;1172;87651;-66
2021/03/14 00:47:21;;;;;;;3.70;1.40;;;;;;;5.79;68.60;98744.45;99567;1168;75090;-65
2021/03/14 00:49:27;;;;;;;2.80;1.65;;;;;;;5.73;68.75;98742.56;99552;1171;88434;-65
2021/03/14 00:51:32;;;;;;;3.65;1.85;;;;;;;5.77;69.33;98741.12;99550;1172;82929;-66
2021/03/14 00:53:38;;;;;;;4.00;1.70;;;;;;;5.76;69.05;98742.16;99568;1167;67109;-66
2021/03/14 00:55:43;;;;;;;3.43;1.40;;;;;;;5.73;69.12;98738.03;99543;1172;86434;-66
2021/03/14 00:57:48;;;;;;;3.50;1.75;;;;;;;5.68;68.96;98742.33;99547;1172;74993;-66
2021/03/14 00:59:54;;;;;;;4.05;1.70;;;;;;;5.63;69.12;98737.55;99447;1174;89023;-65
2021/03/14 01:02:02;;;;;;;3.15;1.80;;;;;;;5.65;70.01;98734.69;99540;1171;82455;-65
2021/03/14 01:04:08;;;;;;;3.40;1.80;;;;;;;5.77;69.60;98741.12;99444;1168;67127;-66
2021/03/14 01:06:14;;;;;;;4.10;1.80;;;;;;;5.87;69.78;98741.63;99547;1172;87548;-66
2021/03/14 01:08:19;;;;;;;5.50;2.20;;;;;;;5.94;69.81;98737.11;99590;1172;75612;-66
2021/03/14 01:10:25;;;;;;;5.50;1.90;;;;;;;6.03;69.93;98735.91;99564;1172;89681;-65
2021/03/14 01:12:30;;;;;;;5.45;2.00;;;;;;;6.11;69.55;98742.94;99529;1172;82322;-66
2021/03/14 01:14:36;;;;;;;3.67;2.03;;;;;;;6.14;69.69;98729.14;99564;1168;66967;-66
2021/03/14 01:16:41;;;;;;;4.30;1.60;;;;;;;6.19;69.66;98726.67;99551;1172;86807;-65
2021/03/14 01:18:49;;;;;;;3.00;1.50;;;;;;;6.21;70.00;98728.13;99571;1171;75193;-66
2021/03/14 01:20:55;;;;;;;3.45;1.70;;;;;;;6.27;69.66;98732.69;99576;1172;89325;-65
2021/03/14 01:23:00;;;;;;;5.30;1.60;;;;;;;6.31;69.58;98728.58;99537;1172;82976;-64
2021/03/14 01:25:08;;;;;;;4.30;1.60;;;;;;;6.32;69.42;98726.70;99562;1170;67012;-65
2021/03/14 01:27:14;;;;;;;2.80;1.50;;;;;;;6.27;69.51;98727.32;99568;1171;86985;-65
2021/03/14 01:29:19;;;;;;;2.57;1.40;;;;;;;6.21;69.45;98727.29;99562;1172;76113;-65
2021/03/14 01:31:25;;;;;;;4.10;2.10;;;;;;;6.12;69.99;98726.67;99552;1171;88876;-65
2021/03/14 01:33:30;;;;;;;3.53;1.67;;;;;;;6.03;69.56;98724.36;99547;1172;82363;-64
2021/03/14 01:35:39;;;;;;;3.10;1.70;;;;;;;5.94;69.52;98715.67;99551;1168;67175;-65
2021/03/14 01:37:44;;;;;;;4.63;1.73;;;;;;;5.88;69.98;98716.47;99543;1167;87138;-65
2021/03/14 01:39:50;;;;;;;3.20;1.75;;;;;;;5.84;70.03;98718.70;99566;1172;75240;-65
2021/03/14 01:41:55;;;;;;;3.55;1.80;;;;;;;5.79;70.08;98715.80;99563;1167;88972;-66
2021/03/14 01:44:01;;;;;;;3.60;1.75;;;;;;;5.75;70.09;98711.86;99526;1170;82521;-66
2021/03/14 01:46:09;;;;;;;3.07;1.43;;;;;;;5.69;70.00;98706.46;99549;1166;67050;-66
2021/03/14 01:48:20;;;;;;;3.30;1.63;;;;;;;5.65;70.39;98713.26;99567;1172;87154;-66
2021/03/14 01:50:27;;;;;;;3.60;1.60;;;;;;;5.57;70.08;98703.55;99559;1171;74220;-67
2021/03/14 01:52:34;;;;;;;3.50;1.70;;;;;;;5.56;70.20;98714.44;99563;1172;89926;-67
2021/03/14 01:54:40;;;;;;;3.30;1.60;;;;;;;5.55;70.21;98704.78;99543;1173;83317;-67
2021/03/14 01:56:45;;;;;;;3.90;1.60;;;;;;;5.47;70.69;98697.70;99547;1168;67062;-67
2021/03/14 01:58:51;;;;;;;4.70;1.75;;;;;;;5.43;70.09;98695.64;99528;1170;87708;-67
2021/03/14 02:00:59;;;;;;;4.25;2.00;;;;;;;5.33;70.54;98694.14;99560;1172;75648;-67
2021/03/14 02:03:07;;;;;;;3.90;1.60;;;;;;;5.24;70.65;98689.98;99551;1172;89213;-67
2021/03/14 02:05:17;;;;;;;5.40;1.90;;;;;;;5.23;70.77;98701.70;99548;1172;81897;-66
2021/03/14 02:07:22;;;;;;;3.00;1.70;;;;;;;5.21;70.68;98713.64;99559;1172;66991;-66
2021/03/14 02:09:27;;;;;;;5.95;2.85;;;;;;;5.15;71.04;98707.22;99559;1171;87235;-68
2021/03/14 02:11:41;;;;;;;3.23;1.43;;;;;;;5.14;70.83;98705.55;99560;1172;75468;-68
2021/03/14 02:13:50;;;;;;;2.80;1.40;;;;;;;5.09;71.06;98709.84;99554;1172;89990;-65
2021/03/14 02:15:59;;;;;;;4.40;1.70;;;;;;;5.04;70.86;98709.60;99541;1168;83291;-64
2021/03/14 02:18:08;;;;;;;4.00;1.40;;;;;;;4.94;71.10;98712.64;99575;1172;66813;-64
2021/03/14 02:20:17;;;;;;;4.60;2.20;;;;;;;4.89;71.11;98709.69;99554;1171;87036;-66
2021/03/14 02:22:24;;;;;;;2.75;1.65;;;;;;;4.87;71.40;98705.56;99542;1170;74525;-67
2021/03/14 02:24:36;;;;;;;3.65;1.80;;;;;;;4.84;71.60;98701.42;99555;1172;89335;-67
2021/03/14 02:26:57;;;;;;;3.50;1.70;;;;;;;4.83;71.46;98702.47;99532;1170;81835;-66
2021/03/14 02:29:04;;;;;;;3.30;1.60;;;;;;;4.81;71.32;98703.69;99559;1170;67165;-65
2021/03/14 02:31:11;;;;;;;3.90;1.90;;;;;;;4.76;71.44;98698.89;99545;1172;87509;-64
2021/03/14 02:33:24;;;;;;;2.65;1.50;;;;;;;4.76;71.41;98709.59;99570;1172;75904;-65
2021/03/14 02:35:30;;;;;;;3.53;2.03;;;;;;;4.78;71.46;98706.74;99543;1172;89560;-64
2021/03/14 02:37:37;;;;;;;6.00;2.10;;;;;;;4.78;71.50;98704.07;99539;1172;82457;-64
2021/03/14 02:39:44;;;;;;;4.60;2.00;;;;;;;4.74;71.76;98700.95;99563;1167;66769;-66
2021/03/14 02:41:56;;;;;;;4.60;1.80;;;;;;;4.67;71.57;98703.55;99534;1173;86290;-66
2021/03/14 02:44:02;;;;;;;5.00;2.00;;;;;;;4.69;71.33;98714.08;99569;1171;74714;-66
2021/03/14 02:46:08;;;;;;;3.30;1.90;;;;;;;4.65;72.04;98710.12;99576;1171;88668;-68
2021/03/14 02:48:15;;;;;;;4.40;3.10;;;;;;;4.63;71.74;98704.98;99529;1171;81967;-66
2021/03/14 02:50:22;;;;;;;4.17;1.60;;;;;;;4.56;72.29;98709.42;99568;1172;67083;-66
2021/03/14 02:52:31;;;;;;;4.40;1.80;;;;;;;4.57;71.89;98702.23;99542;1172;87160;-66
2021/03/14 02:54:37;;;;;;;4.63;2.20;;;;;;;4.61;72.24;98707.02;99543;1172;75899;-67
2021/03/14 02:56:49;;;;;;;5.17;1.80;;;;;;;4.59;72.75;98708.20;99541;1172;90145;-66
2021/03/14 02:58:55;;;;;;;3.20;1.60;;;;;;;4.57;72.22;98710.25;99549;1171;82267;-66
2021/03/14 03:01:03;;;;;;;4.60;1.90;;;;;;;4.54;72.45;98714.14;99558;1172;67377;-66
2021/03/14 03:03:10;;;;;;;4.10;1.70;;;;;;;4.52;72.72;98718.03;99551;1168;88022;-66
2021/03/14 03:05:20;;;;;;;3.60;1.70;;;;;;;4.51;72.34;98716.36;99552;1167;74571;-67
2021/03/14 03:07:26;;;;;;;4.90;2.00;;;;;;;4.49;72.64;98718.41;99570;1172;89665;-66
2021/03/14 03:09:33;;;;;;;3.40;1.70;;;;;;;4.44;72.31;98720.84;99534;1172;81749;-66
2021/03/14 03:11:40;;;;;;;4.80;2.00;;;;;;;4.48;72.61;98724.77;99526;1172;66990;-66
2021/03/14 03:13:46;;;;;;;3.83;1.90;;;;;;;4.49;72.08;98723.76;99502;1167;86203;-66
2021/03/14 03:15:53;;;;;;;5.00;1.60;;;;;;;4.44;72.44;98734.20;99438;1168;75661;-66
2021/03/14 03:18:03;;;;;;;3.57;1.70;;;;;;;4.42;71.81;98729.03;99439;1174;88964;-65
2021/03/14 03:20:12;;;;;;;3.70;1.70;;;;;;;4.43;71.97;98735.21;99517;1172;82974;-66
2021/03/14 03:22:17;;;;;;;3.80;1.80;;;;;;;4.39;72.17;98740.13;99554;1168;67202;-66
2021/03/14 03:24:23;;;;;;;4.60;1.60;;;;;;;4.39;72.18;98734.78;99558;1172;87785;-65
2021/03/14 03:26:28;;;;;;;3.25;1.60;;;;;;;4.43;72.47;98748.58;99443;1168;74979;-66
2021/03/14 03:28:34;;;;;;;5.35;1.80;;;;;;;4.46;72.40;98748.20;99554;1167;89307;-65
2021/03/14 03:30:39;;;;;;;4.55;2.25;;;;;;;4.48;72.45;98755.01;99515;1172;81926;-65
2021/03/14 03:32:46;;;;;;;3.85;1.60;;;;;;;4.44;72.31;98756.42;99551;1171;67049;-66
2021/03/14 03:34:51;;;;;;;3.60;1.50;;;;;;;4.42;72.54;98744.27;99547;1171;86707;-65
2021/03/14 03:36:56;;;;;;;5.05;1.80;;;;;;;4.42;72.42;98745.07;99570;1172;75057;-65
2021/03/14 03:39:05;;;;;;;4.10;1.60;;;;;;;4.43;72.24;98741.39;99437;1174;90088;-65
2021/03/14 03:41:10;;;;;;;4.30;1.60;;;;;;;4.41;72.20;98753.30;99539;1172;82115;-65
2021/03/14 03:43:22;;;;;;;4.20;1.85;;;;;;;4.43;72.43;98741.39;99447;1174;66896;-65
2021/03/14 03:45:31;;;;;;;4.15;1.70;;;;;;;4.44;72.35;98752.92;99436;1171;86786;-65
2021/03/14 03:47:37;;;;;;;4.35;1.50;;;;;;;4.40;72.43;98752.46;99447;1174;75952;-65
2021/03/14 03:49:47;;;;;;;5.70;1.70;;;;;;;4.40;72.46;98762.32;99555;1167;89902;-65
2021/03/14 03:51:54;;;;;;;2.80;1.47;;;;;;;4.40;72.31;98756.97;99539;1172;81853;-65
2021/03/14 03:54:05;;;;;;;5.53;1.67;;;;;;;4.37;72.46;98755.52;99447;1171;66876;-65
2021/03/14 03:56:13;;;;;;;4.40;1.65;;;;;;;4.38;72.34;98765.20;99532;1172;87536;-65
2021/03/14 03:58:20;;;;;;;4.30;1.70;;;;;;;4.36;72.64;98761.89;99439;1167;75076;-65
2021/03/14 04:00:30;;;;;;;4.00;1.55;;;;;;;4.35;72.22;98762.07;99440;1174;89679;-66
2021/03/14 04:02:37;;;;;;;3.40;1.57;;;;;;;4.32;72.39;98765.12;99431;1174;83233;-65
2021/03/14 04:04:45;;;;;;;3.20;1.40;;;;;;;4.28;72.42;98755.84;99442;1174;66800;-65
2021/03/14 04:06:52;;;;;;;4.70;1.80;;;;;;;4.26;72.58;98760.55;99449;1174;87708;-65
2021/03/14 04:08:59;;;;;;;3.70;1.80;;;;;;;4.28;72.40;98779.89;99578;1170;74866;-65
2021/03/14 04:11:08;;;;;;;4.30;1.90;;;;;;;4.29;72.78;98771.67;99549;1171;88529;-65
2021/03/14 04:13:18;;;;;;;2.77;1.27;;;;;;;4.29;72.75;98776.19;99428;1174;82929;-65
2021/03/14 04:15:29;;;;;;;3.10;1.50;;;;;;;4.29;72.76;98755.63;99434;1175;68036;-65
2021/03/14 04:17:56;;;;;;;3.37;1.60;;;;;;;4.31;72.43;98758.97;99444;1174;87753;-65
2021/03/14 04:20:05;;;;;;;4.10;2.00;;;;;;;4.28;72.87;98758.51;99550;1172;75610;-64
2021/03/14 04:22:11;;;;;;;3.90;1.80;;;;;;;4.28;72.70;98756.67;99439;1171;88647;-64
2021/03/14 04:24:18;;;;;;;5.40;2.00;;;;;;;4.28;72.51;98756.67;99426;1174;82945;-64
2021/03/14 04:26:25;;;;;;;3.40;1.60;;;;;;;4.31;72.90;98763.48;99449;1175;66926;-64
2021/03/14 04:28:33;;;;;;;3.80;1.43;;;;;;;4.34;72.65;98757.76;99435;1171;87375;-65
2021/03/14 04:30:43;;;;;;;6.20;1.70;;;;;;;4.38;72.29;98748.33;99453;1167;74581;-65
2021/03/14 04:32:49;;;;;;;4.00;1.50;;;;;;;4.36;72.33;98753.88;99509;1166;89597;-65
2021/03/14 04:34:56;;;;;;;3.10;1.80;;;;;;;4.36;72.01;98750.37;99535;1172;82671;-64
2021/03/14 04:37:02;;;;;;;4.50;1.30;;;;;;;4.32;72.30;98749.08;99452;1173;66843;-64
2021/03/14 04:39:08;;;;;;;4.93;2.30;;;;;;;4.27;72.36;98748.83;99423;1175;86592;-64
2021/03/14 04:41:15;;;;;;;3.60;1.30;;;;;;;4.24;72.37;98747.36;99447;1173;75084;-64
2021/03/14 04:43:22;;;;;;;3.50;1.60;;;;;;;4.26;72.26;98745.31;99447;1174;88943;-64
2021/03/14 04:45:28;;;;;;;3.50;1.50;;;;;;;4.26;72.11;98750.66;99421;1175;82520;-65
2021/03/14 04:47:34;;;;;;;4.40;1.70;;;;;;;4.26;72.24;98741.84;99445;1174;66913;-65
2021/03/14 04:49:40;;;;;;;2.75;1.60;;;;;;;4.22;72.33;98745.90;99418;1167;87906;-64
2021/03/14 04:51:47;;;;;;;4.60;1.70;;;;;;;4.17;72.39;98746.47;99451;1174;74964;-64
2021/03/14 04:53:53;;;;;;;3.05;1.45;;;;;;;4.19;72.38;98749.78;99446;1174;88820;-64
2021/03/14 04:55:59;;;;;;;4.00;2.00;;;;;;;4.21;72.32;98762.94;99418;1171;82379;-65
2021/03/14 04:58:13;;;;;;;3.75;1.55;;;;;;;4.17;72.38;98757.97;99443;1174;67095;-65
2021/03/14 05:00:22;;;;;;;2.75;1.50;;;;;;;4.18;72.40;98743.60;99429;1171;87302;-64
2021/03/14 05:02:29;;;;;;;3.60;1.60;;;;;;;4.18;72.57;98758.80;99443;1171;74758;-64
2021/03/14 05:04:36;;;;;;;4.20;1.60;;;;;;;4.17;72.84;98751.82;99448;1174;89967;-64
2021/03/14 05:06:46;;;;;;;4.90;1.70;;;;;;;4.15;72.81;98743.98;99435;1171;81686;-64
2021/03/14 05:08:52;;;;;;;3.65;1.65;;;;;;;4.12;72.46;98749.69;99445;1174;66973;-65
2021/03/14 05:10:57;;;;;;;3.13;1.73;;;;;;;4.10;72.63;98745.55;99444;1171;87206;-64
2021/03/14 05:13:13;;;;;;;5.00;1.60;;;;;;;4.10;72.55;98743.72;99445;1174;77078;-64
2021/03/14 05:15:22;;;;;;;2.77;1.77;;;;;;;4.14;72.87;98747.69;99438;1171;89198;-65
2021/03/14 05:17:27;;;;;;;5.00;1.90;;;;;;;4.14;72.81;98754.87;99432;1175;81891;-64
2021/03/14 05:19:37;;;;;;;5.90;1.80;;;;;;;4.17;72.40;98762.51;99446;1168;67102;-65
2021/03/14 05:21:43;;;;;;;3.90;1.70;;;;;;;4.17;72.51;98752.63;99421;1173;87023;-65
2021/03/14 05:23:51;;;;;;;5.05;1.60;;;;;;;4.18;72.50;98748.11;99445;1174;75703;-65
2021/03/14 05:25:56;;;;;;;4.35;1.85;;;;;;;4.25;72.53;98751.70;99434;1175;89505;-64
2021/03/14 05:28:14;;;;;;;4.60;1.50;;;;;;;4.27;72.59;98752.33;99423;1174;82130;-64
2021/03/14 05:30:26;;;;;;;4.35;1.75;;;;;;;4.29;72.25;98754.80;99444;1174;66926;-65
2021/03/14 05:32:32;;;;;;;3.30;1.50;;;;;;;4.34;72.10;98752.41;99430;1174;87470;-65
2021/03/14 05:34:38;;;;;;;5.55;1.90;;;;;;;4.38;72.58;98742.98;99443;1171;75968;-64
2021/03/14 05:36:44;;;;;;;3.37;1.70;;;;;;;4.40;72.33;98740.94;99443;1167;89916;-64
2021/03/14 05:38:49;;;;;;;5.90;1.80;;;;;;;4.40;72.49;98735.59;99548;1167;81641;-66
2021/03/14 05:40:57;;;;;;;5.05;1.85;;;;;;;4.42;71.94;98739.72;99458;1174;66802;-64
2021/03/14 05:43:07;;;;;;;3.00;1.50;;;;;;;4.49;72.54;98737.13;99435;1171;87229;-64
2021/03/14 05:45:16;;;;;;;3.70;1.75;;;;;;;4.54;72.29;98735.53;99542;1172;75934;-63
2021/03/14 05:47:21;;;;;;;3.60;1.70;;;;;;;4.59;72.20;98748.31;99556;1172;89553;-63
2021/03/14 05:49:27;;;;;;;6.35;2.20;;;;;;;4.84;72.12;98749.58;99423;1174;82477;-64
2021/03/14 05:51:36;;;;;;;5.00;1.90;;;;;;;5.16;72.19;98759.73;99440;1168;66962;-64
2021/03/14 05:53:42;;;;;;;3.45;1.40;;;;;;;5.71;71.59;98768.73;99436;1174;87850;-63
2021/03/14 05:55:51;;;;;;;3.30;1.50;;;;;;;6.32;71.63;98770.44;99447;1173;74761;-64
2021/03/14 05:58:00;;;;;;;3.70;1.90;;;;;;;7.25;70.56;98769.50;99441;1175;89803;-64
2021/03/14 06:00:13;;;;;;;3.87;1.80;;;;;;;8.19;70.72;98762.64;99429;1174;81788;-63
2021/03/14 06:02:20;;;;;;;5.85;1.75;;;;;;;8.98;68.79;98761.38;99462;1168;66860;-64
2021/03/14 06:04:28;;;;;;;2.73;1.60;;;;;;;8.99;67.80;98761.14;99432;1174;87664;-64
2021/03/14 06:06:34;;;;;;;3.70;1.70;;;;;;;8.92;66.99;98767.63;99448;1174;75108;-64
2021/03/14 06:08:40;;;;;;;3.30;1.90;;;;;;;9.51;66.47;98765.25;99440;1171;89763;-65
2021/03/14 06:10:45;;;;;;;3.80;1.90;;;;;;;9.75;65.37;98769.77;99417;1173;81869;-66
2021/03/14 06:12:51;;;;;;;6.40;2.10;;;;;;;9.27;64.27;98769.63;99444;1168;66917;-65
2021/03/14 06:14:57;;;;;;;4.30;1.90;;;;;;;8.73;64.58;98764.88;99426;1174;87960;-65
2021/03/14 06:17:02;;;;;;;5.00;2.15;;;;;;;8.41;64.86;98770.42;99443;1175;75143;-66
2021/03/14 06:19:08;;;;;;;3.35;1.90;;;;;;;8.30;64.92;98753.93;99433;1168;88767;-65
2021/03/14 06:21:24;;;;;;;4.10;1.80;;;;;;;8.21;62.99;98754.38;99425;1174;82551;-65
2021/03/14 06:23:30;;;;;;;4.00;1.80;;;;;;;8.19;64.02;98751.88;99551;1171;66787;-65
2021/03/14 06:25:36;;;;;;;5.45;2.10;;;;;;;8.35;64.37;98755.97;99539;1170;87636;-65
2021/03/14 06:27:51;;;;;;;4.00;1.90;;;;;;;8.71;65.36;98752.64;99451;1174;74921;-65
2021/03/14 06:30:05;;;;;;;3.85;1.90;;;;;;;8.96;64.24;98750.81;99442;1174;88792;-65
2021/03/14 06:32:13;;;;;;;5.60;1.90;;;;;;;9.40;64.29;98755.19;99523;1172;82746;-65
2021/03/14 06:34:27;;;;;;;4.70;1.85;;;;;;;9.68;63.70;98752.84;99443;1174;67149;-65
2021/03/14 06:36:34;;;;;;;3.50;1.80;;;;;;;9.57;60.83;98745.49;99432;1174;86280;-65
2021/03/14 06:38:40;;;;;;;4.50;1.80;;;;;;;9.46;63.17;98757.00;99542;1172;75636;-64
2021/03/14 06:40:45;;;;;;;5.00;1.90;;;;;;;9.67;63.00;98753.08;99567;1172;89425;-64
2021/03/14 06:42:51;;;;;;;4.00;2.20;;;;;;;9.62;62.21;98758.29;99537;1172;82998;-64
2021/03/14 06:45:03;;;;;;;2.87;1.80;;;;;;;9.73;62.09;98754.86;99450;1168;66951;-64
2021/03/14 06:47:09;;;;;;;5.17;2.07;;;;;;;9.65;62.16;98755.98;99431;1174;86193;-65
2021/03/14 06:49:18;;;;;;;4.77;2.43;;;;;;;9.48;61.75;98762.98;99467;1171;75599;-65
2021/03/14 06:51:35;;;;;;;3.50;1.73;;;;;;;9.20;61.63;98770.73;99435;1167;89092;-65
2021/03/14 06:53:40;;;;;;;4.30;1.90;;;;;;;8.98;61.93;98782.92;99428;1171;82281;-65
2021/03/14 06:55:48;;;;;;;2.95;1.60;;;;;;;8.92;61.98;98783.79;99443;1172;66964;-65
2021/03/14 06:57:53;;;;;;;2.75;1.75;;;;;;;8.75;61.35;98789.70;99435;1174;87610;-65
2021/03/14 07:00:00;;;;;;;3.40;1.80;;;;;;;8.66;61.67;98784.78;99514;1172;75457;-66
2021/03/14 07:02:14;;;;;;;3.85;1.80;;;;;;;8.63;61.64;98786.03;99549;1167;89106;-66
2021/03/14 07:04:49;;;;;;;4.80;2.40;;;;;;;9.07;62.21;98787.80;99437;1168;81990;-66
2021/03/14 07:06:58;;;;;;;3.80;1.90;;;;;;;9.02;61.23;98781.42;99450;1168;67097;-65
2021/03/14 07:09:12;;;;;;;3.40;2.10;;;;;;;9.18;61.78;98794.34;99427;1175;87666;-66
2021/03/14 07:11:36;;;;;;;;;;;;;;;9.91;61.69;98779.98;99465;1169;75153;-66
2021/03/14 07:13:52;;;;;;;4.30;2.10;;;;;;;10.96;60.02;98770.49;99562;1171;89188;-65
2021/03/14 07:15:58;;;;;;;4.07;1.77;;;;;;;11.04;58.93;98770.16;99414;1171;82213;-66
2021/03/14 07:18:15;;;;;;;3.80;1.90;;;;;;;10.74;58.80;98774.77;99449;1175;67037;-66
2021/03/14 07:20:22;;;;;;;3.63;1.67;;;;;;;10.62;58.81;98772.05;99442;1168;87413;-66
2021/03/14 07:22:29;;;;;;;5.80;2.30;;;;;;;10.92;57.92;98771.20;99461;1174;75515;-66
2021/03/14 07:24:36;;;;;;;3.45;1.85;;;;;;;10.78;58.04;98772.44;99434;1174;88995;-66
2021/03/14 07:26:45;;;;;;;3.75;1.70;;;;;;;10.41;57.20;98771.73;99427;1174;82676;-65
2021/03/14 07:28:51;;;;;;;4.60;2.15;;;;;;;10.36;57.95;98768.86;99457;1168;67082;-65
2021/03/14 07:30:57;;;;;;;4.70;1.90;;;;;;;10.62;57.89;98768.52;99436;1171;86590;-65
2021/03/14 07:33:03;;;;;;;3.55;2.20;;;;;;;10.75;57.46;98776.43;99454;1171;74950;-65
2021/03/14 07:35:12;;;;;;;4.10;1.90;;;;;;;10.90;57.52;98776.84;99439;1174;89457;-66
2021/03/14 07:37:19;;;;;;;3.00;1.70;;;;;;;11.19;56.35;98772.42;99426;1171;82559;-66
2021/03/14 07:39:28;;;;;;;5.40;2.25;;;;;;;11.22;56.16;98772.79;99439;1174;67201;-66
2021/03/14 07:41:34;;;;;;;4.40;2.00;;;;;;;11.44;56.88;98774.92;99432;1174;87530;-66
2021/03/14 07:43:42;;;;;;;3.35;2.10;;;;;;;11.75;56.43;98769.20;99443;1167;75027;-65
2021/03/14 07:45:51;;;;;;;4.33;1.70;;;;;;;12.49;56.84;98768.32;99453;1174;89647;-64
2021/03/14 07:47:58;;;;;;;4.20;2.00;;;;;;;13.25;54.98;98767.00;99413;1174;82366;-65
2021/03/14 07:50:07;;;;;;;5.40;2.50;;;;;;;13.55;53.97;98778.33;99444;1174;66923;-67
2021/03/14 07:52:24;;;;;;;3.20;1.80;;;;;;;14.40;53.52;98775.19;99436;1174;87023;-66
2021/03/14 07:54:40;;;;;;;3.65;2.05;;;;;;;14.60;52.83;98776.26;99448;1168;75266;-67
2021/03/14 07:56:50;;;;;;;4.40;2.00;;;;;;;16.05;53.24;98780.50;99441;1167;89386;-66
2021/03/14 07:58:59;;;;;;;4.10;2.30;;;;;;;17.20;50.95;98762.07;99427;1174;82979;-65
2021/03/14 08:01:23;;;;;;;5.20;2.20;;;;;;;18.04;48.17;98768.60;99439;1168;66889;-66
2021/03/14 08:03:39;;;;;;;6.05;2.40;;;;;;;18.42;47.88;98761.63;99431;1174;87670;-65
2021/03/14 08:05:53;;;;;;;4.10;2.30;;;;;;;19.50;46.87;98774.42;99445;1174;74952;-65
2021/03/14 08:07:59;;;;;;;4.50;2.10;;;;;;;19.65;42.47;98749.63;99514;1172;89905;-63
2021/03/14 08:10:11;;;;;;;4.40;2.10;;;;;;;19.02;41.93;98757.77;99411;1174;84095;-66
2021/03/14 08:12:26;;;;;;;4.40;2.40;;;;;;;19.49;40.57;98761.83;99454;1168;67018;-66
2021/03/14 08:14:45;;;;;;;3.30;2.10;;;;;;;20.25;42.20;98754.50;99525;1171;86679;-68
2021/03/14 08:17:20;;;;;;;4.80;2.20;;;;;;;20.63;38.88;98749.11;99450;1174;75025;-67
2021/03/14 08:19:42;;;;;;;3.30;1.70;;;;;;;21.29;39.01;98740.75;99429;1174;89770;-66
2021/03/14 08:21:47;;;;;;;4.10;2.10;;;;;;;21.87;35.69;98733.69;99535;1172;82309;-66
2021/03/14 08:23:55;;;;;;;5.43;2.00;;;;;;;22.57;37.53;98744.41;99431;1174;67055;-66
2021/03/14 08:26:17;;;;;;;3.75;1.70;;;;;;;23.31;37.22;98746.59;99533;1172;86876;-65
2021/03/14 08:28:33;;;;;;;3.70;1.90;;;;;;;23.95;36.83;98731.44;99443;1174;75272;-67
2021/03/14 08:30:49;;;;;;;3.43;1.90;;;;;;;24.11;36.27;98742.11;99431;1175;89242;-65
2021/03/14 08:33:34;;;;;;;4.15;2.15;;;;;;;24.16;34.39;98744.72;99558;1168;82104;-67
2021/03/14 08:35:46;;;;;;;3.80;1.80;;;;;;;24.35;35.07;98742.52;99456;1174;67119;-66
2021/03/14 08:38:35;;;;;;;3.73;2.30;;;;;;;24.21;32.93;98731.59;99427;1174;87894;-65
2021/03/14 08:40:44;;;;;;;3.30;2.10;;;;;;;24.01;32.29;98738.45;99457;1167;74419;-66
2021/03/14 08:42:56;;;;;;;3.67;1.90;;;;;;;24.38;32.69;98722.56;99446;1171;88885;-67
2021/03/14 08:45:20;;;;;;;4.25;2.10;;;;;;;23.76;33.52;98716.27;99432;1167;83314;-66
2021/03/14 08:47:27;;;;;;;3.80;2.10;;;;;;;24.74;32.93;98700.22;99447;1174;66961;-65
2021/03/14 08:49:34;;;;;;;4.30;1.85;;;;;;;24.23;30.57;98737.60;99421;1168;87166;-64
2021/03/14 08:51:43;;;;;;;3.40;1.70;;;;;;;24.64;29.56;98745.52;99444;1175;75575;-64
2021/03/14 08:53:51;;;;;;;3.40;1.70;;;;;;;25.02;30.33;98754.91;99459;1174;89760;-66
2021/03/14 08:56:00;;;;;;;2.80;1.50;;;;;;;24.23;29.94;98762.44;99436;1173;81818;-65
2021/03/14 08:58:16;;;;;;;3.40;1.40;;;;;;;24.45;30.00;98761.55;99447;1168;67070;-65
2021/03/14 09:00:25;;;;;;;3.10;1.30;;;;;;;24.21;29.45;98761.13;99566;1168;87173;-64
2021/03/14 09:02:39;;;;;;;3.00;1.50;;;;;;;23.40;30.18;98774.26;99434;1174;76168;-65
2021/03/14 09:04:49;;;;;;;2.83;1.43;;;;;;;23.78;30.05;98769.98;99437;1175;89292;-63
2021/03/14 09:07:05;;;;;;;3.37;1.70;;;;;;;24.21;29.80;98783.21;99542;1171;83645;-66
2021/03/14 09:09:20;;;;;;;2.50;1.50;;;;;;;24.12;28.64;98771.34;99453;1169;66830;-66
2021/03/14 09:11:44;;;;;;;2.90;1.40;;;;;;;23.48;29.62;98781.77;99546;1171;87212;-65
2021/03/14 09:13:49;;;;;;;3.90;1.70;;;;;;;22.90;30.05;98773.45;99452;1167;74790;-64
2021/03/14 09:15:55;;;;;;;2.85;1.50;;;;;;;22.94;29.45;98788.22;99512;1168;88445;-64
2021/03/14 09:18:00;;;;;;;3.30;1.30;;;;;;;22.53;29.99;98777.23;99430;1174;81928;-65
2021/03/14 09:20:09;;;;;;;3.80;1.80;;;;;;;22.59;30.68;98780.70;99444;1175;66999;-65
2021/03/14 09:22:19;;;;;;;3.00;1.40;;;;;;;22.81;30.07;98789.06;99441;1174;87048;-65
2021/03/14 09:24:41;;;;;;;3.40;1.50;;;;;;;22.75;28.48;98788.36;99451;1175;75800;-65
2021/03/14 09:26:55;;;;;;;2.57;1.40;;;;;;;21.10;27.65;98798.41;99447;1172;88369;-64
2021/03/14 09:29:01;;;;;;;3.20;1.65;;;;;;;19.69;29.71;98811.80;99506;1172;82775;-64
2021/03/14 09:31:13;;;;;;;4.25;1.50;;;;;;;18.50;30.25;98809.48;99571;1172;66949;-62
2021/03/14 09:33:20;;;;;;;2.60;1.50;;;;;;;17.80;32.31;98827.63;99436;1171;86453;-64
2021/03/14 09:35:28;;;;;;;4.65;1.60;;;;;;;17.91;33.38;98818.33;99451;1168;74918;-64
2021/03/14 09:37:34;;;;;;;3.30;1.60;;;;;;;17.80;33.03;98822.17;99430;1175;89642;-65
2021/03/14 09:39:40;;;;;;;2.90;1.30;;;;;;;17.93;33.51;98815.34;99426;1174;81480;-60
2021/03/14 09:41:47;;;;;;;2.90;1.55;;;;;;;17.73;33.68;98831.73;99450;1175;67046;-60
2021/03/14 09:43:52;;;;;;;2.15;1.30;;;;;;;17.77;34.13;98820.02;99437;1174;87217;-64
2021/03/14 09:46:00;;;;;;;3.65;1.75;;;;;;;17.06;33.49;98828.09;99456;1175;75508;-62
2021/03/14 09:48:15;;;;;;;3.70;1.40;;;;;;;16.24;34.52;98841.64;99439;1175;90161;-62
2021/03/14 09:50:20;;;;;;;3.90;1.57;;;;;;;15.38;35.25;98842.05;99538;1170;81950;-62
2021/03/14 09:52:26;;;;;;;2.70;1.50;;;;;;;14.60;36.69;98846.92;99436;1174;66990;-63
2021/03/14 09:54:31;;;;;;;3.13;1.40;;;;;;;14.11;37.43;98853.29;99437;1168;87125;-63
2021/03/14 09:56:37;;;;;;;3.65;1.80;;;;;;;13.79;37.52;98849.55;99448;1174;75613;-66
2021/03/14 09:58:42;;;;;;;3.45;1.60;;;;;;;13.43;38.22;98854.37;99438;1167;89749;-65
2021/03/14 10:00:50;;;;;;;2.65;1.50;;;;;;;13.21;38.89;98855.34;99421;1175;82351;-64
2021/03/14 10:02:58;;;;;;;4.95;1.80;;;;;;;13.23;39.49;98851.32;99458;1168;67270;-65
2021/03/14 10:05:05;;;;;;;2.70;1.60;;;;;;;13.37;39.90;98847.23;99443;1173;87652;-64
2021/03/14 10:07:23;;;;;;;3.10;1.40;;;;;;;13.59;40.53;98848.16;99556;1171;74358;-64
2021/03/14 10:09:31;;;;;;;4.70;1.65;;;;;;;13.40;40.12;98844.03;99450;1174;89895;-69
2021/03/14 10:11:37;;;;;;;2.65;1.40;;;;;;;13.37;40.47;98847.23;99437;1174;81779;-68